Time;durP1;ratioP1;P1;durP2;ratioP2;P2;SDS_P1;SDS_P2;PMS_P1;PMS_P2;Temp;Humidity;BMP_temperature;BMP_pressure;BME280_temperature;BME280_humidity;BME280_pressure;Samples;Min_cycle;Max_cycle;Signal;HPM_P1;HPM_P2
2021/08/11 00:02:10;;;;;;;21.80;12.85;;;;;;;20.87;64.07;98976.50;2169897;81;20928;-79
2021/08/11 00:05:10;;;;;;;19.12;16.70;;;;;;;19.77;66.29;98929.34;2172175;81;20956;-79
2021/08/11 00:08:11;;;;;;;16.82;13.45;;;;;;;20.17;68.40;98945.61;2173295;81;20961;-79
2021/08/11 00:11:11;;;;;;;15.18;13.62;;;;;;;20.57;67.26;98963.58;2172417;81;20981;-80
2021/08/11 00:14:12;;;;;;;15.18;10.72;;;;;;;20.83;66.86;98951.42;2171796;81;21004;-79
2021/08/11 00:17:12;;;;;;;14.98;11.08;;;;;;;21.03;66.13;98958.37;2172506;81;21020;-80
2021/08/11 00:20:13;;;;;;;12.00;10.65;;;;;;;21.03;65.72;98958.82;2171785;81;21332;-79
2021/08/11 00:23:14;;;;;;;16.45;9.20;;;;;;;20.83;65.50;98950.09;2172278;81;21340;-79
2021/08/11 00:26:15;;;;;;;13.90;8.40;;;;;;;20.99;65.96;98948.75;2171717;82;21080;-78
2021/08/11 00:29:16;;;;;;;17.90;8.90;;;;;;;21.16;64.96;98946.48;2171528;82;20963;-79
2021/08/11 00:32:16;;;;;;;11.97;8.38;;;;;;;21.11;64.89;98951.51;2171786;81;20968;-79
2021/08/11 00:35:17;;;;;;;11.85;9.08;;;;;;;21.11;64.77;98954.16;2171697;81;20972;-79
2021/08/11 00:38:17;;;;;;;10.50;8.20;;;;;;;21.18;64.40;98953.07;2172947;81;21377;-79
2021/08/11 00:41:18;;;;;;;12.00;10.08;;;;;;;21.15;64.48;98954.48;2171742;81;21012;-79
2021/08/11 00:44:18;;;;;;;11.45;9.85;;;;;;;21.07;64.37;98961.80;2172259;81;20972;-79
2021/08/11 00:47:19;;;;;;;10.58;9.48;;;;;;;21.01;64.55;98952.69;2171483;81;21017;-79
2021/08/11 00:50:19;;;;;;;15.95;14.38;;;;;;;20.61;64.19;98951.11;2170855;81;20921;-79
2021/08/11 00:53:22;;;;;;;12.20;9.68;;;;;;;20.30;65.49;98951.88;2169916;81;21345;-79
2021/08/11 00:56:22;;;;;;;8.95;8.05;;;;;;;20.50;66.20;98947.42;2125490;84;21021;-79
2021/08/11 00:59:24;;;;;;;8.65;7.65;;;;;;;20.71;66.47;98949.95;2125479;84;20945;-78
2021/08/11 01:02:25;;;;;;;9.48;8.25;;;;;;;20.96;65.89;98956.34;2127394;84;21012;-80
2021/08/11 01:05:25;;;;;;;11.08;8.58;;;;;;;21.08;65.41;98943.64;2128336;84;20980;-79
2021/08/11 01:08:26;;;;;;;8.73;7.90;;;;;;;21.17;65.23;98938.93;2128381;84;20991;-80
2021/08/11 01:11:26;;;;;;;11.53;8.73;;;;;;;21.17;64.58;98942.05;2128314;84;20952;-80
2021/08/11 01:14:29;;;;;;;10.23;8.85;;;;;;;21.15;65.04;98953.16;2128035;84;20979;-79
2021/08/11 01:17:29;;;;;;;8.30;7.50;;;;;;;21.18;64.71;98957.05;2128008;84;21010;-79
2021/08/11 01:20:29;;;;;;;9.13;8.18;;;;;;;21.13;64.70;98947.89;2128399;84;20990;-80
2021/08/11 01:23:30;;;;;;;11.18;7.92;;;;;;;21.30;64.79;98948.30;2128315;84;20988;-79
2021/08/11 01:26:30;;;;;;;8.85;7.95;;;;;;;21.51;64.25;98951.23;2128393;84;21430;-80
2021/08/11 01:29:31;;;;;;;9.08;8.28;;;;;;;21.45;64.03;98949.63;2128154;84;20996;-77
2021/08/11 01:32:32;;;;;;;9.08;7.60;;;;;;;21.43;64.17;98951.45;2127941;84;21425;-78
2021/08/11 01:35:32;;;;;;;7.75;7.00;;;;;;;21.58;63.83;98960.28;2128098;84;20995;-78
2021/08/11 01:38:33;;;;;;;13.32;6.67;;;;;;;21.76;63.33;98964.65;2128245;84;21035;-79
2021/08/11 01:41:33;;;;;;;7.15;6.55;;;;;;;21.90;62.54;98966.41;2128724;84;21011;-78
2021/08/11 01:44:34;;;;;;;7.37;6.72;;;;;;;21.79;62.41;98957.91;2128083;84;21060;-78
2021/08/11 01:47:34;;;;;;;7.78;6.80;;;;;;;21.73;62.29;98960.76;2127529;84;21078;-79
2021/08/11 01:50:35;;;;;;;6.85;6.25;;;;;;;21.55;62.66;98955.52;2127813;84;21324;-79
2021/08/11 01:53:35;;;;;;;7.47;6.78;;;;;;;21.52;62.71;98957.81;2127794;84;20971;-79
2021/08/11 01:56:38;;;;;;;11.05;8.68;;;;;;;21.34;62.64;98976.96;2128103;83;20947;-78
2021/08/11 01:59:38;;;;;;;12.13;8.60;;;;;;;20.82;63.34;98966.47;2128133;83;21023;-79
2021/08/11 02:02:39;;;;;;;8.95;6.45;;;;;;;20.82;65.53;98972.23;2127164;84;21024;-78
2021/08/11 02:05:39;;;;;;;6.60;5.97;;;;;;;21.20;64.89;98969.83;2127731;83;21028;-78
2021/08/11 02:08:40;;;;;;;9.10;7.08;;;;;;;21.26;64.52;98967.02;2127713;84;21284;-79
2021/08/11 02:11:41;;;;;;;15.55;11.33;;;;;;;21.49;64.14;98959.70;2128502;83;20936;-79
2021/08/11 02:14:41;;;;;;;10.40;7.05;;;;;;;21.57;63.38;98965.64;2173551;82;20913;-79
2021/08/11 02:17:42;;;;;;;8.48;7.55;;;;;;;20.91;64.83;98962.23;2173986;81;21051;-79
2021/08/11 02:20:42;;;;;;;9.20;7.08;;;;;;;20.91;64.83;98962.23;2172473;81;20948;-79
2021/08/11 02:23:46;;;;;;;12.78;11.45;;;;;;;20.99;65.40;98971.31;2172792;81;20949;-80
2021/08/11 02:26:46;;;;;;;11.60;10.40;;;;;;;20.85;64.31;98962.41;2172503;81;21000;-80
2021/08/11 02:29:47;;;;;;;18.60;12.82;;;;;;;20.86;65.85;98957.97;2171968;82;20984;-79
2021/08/11 02:32:47;;;;;;;14.25;8.98;;;;;;;21.12;65.38;98961.21;2172076;81;20960;-80
2021/08/11 02:35:48;;;;;;;10.98;9.88;;;;;;;21.26;64.65;98963.04;2171459;81;20968;-80
2021/08/11 02:38:49;;;;;;;10.93;9.83;;;;;;;21.13;64.32;98960.30;2170330;82;21305;-80
2021/08/11 02:41:49;;;;;;;14.20;10.82;;;;;;;21.01;64.30;98956.67;2172037;81;20976;-79
2021/08/11 02:44:50;;;;;;;10.10;7.50;;;;;;;21.05;65.35;98971.13;2171774;81;21383;-80
2021/08/11 02:47:50;;;;;;;13.08;8.20;;;;;;;21.23;64.95;98970.64;2178142;81;21040;-80
2021/08/11 02:50:51;;;;;;;7.83;7.03;;;;;;;21.06;62.65;98964.05;2179883;82;21024;-79
2021/08/11 02:53:51;;;;;;;8.68;7.20;;;;;;;20.75;64.97;98951.60;2179685;81;20960;-79
2021/08/11 02:56:52;;;;;;;11.85;7.87;;;;;;;20.86;65.25;98960.62;2179831;82;21007;-80
2021/08/11 02:59:52;;;;;;;14.80;10.72;;;;;;;20.77;63.70;98982.06;2174714;81;20932;-80
2021/08/11 03:02:53;;;;;;;15.53;8.55;;;;;;;20.29;64.83;98985.92;2169946;81;21321;-79
2021/08/11 03:05:53;;;;;;;24.10;20.02;;;;;;;20.35;66.08;98975.17;2170618;82;21665;-79
2021/08/11 03:08:54;;;;;;;38.30;28.47;;;;;;;20.68;65.86;98972.58;2171081;81;20933;-79
2021/08/11 03:11:54;;;;;;;15.60;11.57;;;;;;;20.78;65.00;98976.72;2170270;81;20929;-78
2021/08/11 03:14:55;;;;;;;19.98;13.53;;;;;;;20.28;63.98;98985.52;2170399;81;20917;-79
2021/08/11 03:17:55;;;;;;;21.55;14.40;;;;;;;20.10;66.25;98988.62;2170226;81;21043;-79
2021/08/11 03:20:56;;;;;;;14.53;10.15;;;;;;;20.43;66.55;98982.09;2170698;81;21400;-78
2021/08/11 03:23:56;;;;;;;14.33;10.10;;;;;;;20.67;65.21;98990.27;2170073;81;21321;-79
2021/08/11 03:26:57;;;;;;;17.73;11.25;;;;;;;20.56;65.06;98994.98;2171525;81;20937;-79
2021/08/11 03:29:57;;;;;;;16.55;11.25;;;;;;;20.37;64.92;98993.69;2169676;81;20964;-78
2021/08/11 03:32:58;;;;;;;24.52;19.35;;;;;;;20.18;64.89;98993.27;2169401;81;20985;-79
2021/08/11 03:35:59;;;;;;;13.53;11.78;;;;;;;20.32;65.83;98985.85;2170680;81;21428;-80
2021/08/11 03:39:03;;;;;;;16.57;15.00;;;;;;;20.45;65.39;98986.89;2169721;81;20977;-80
2021/08/11 03:42:03;;;;;;;17.00;13.37;;;;;;;20.51;64.83;98989.39;2170917;82;20995;-79
2021/08/11 03:45:03;;;;;;;16.93;14.98;;;;;;;20.43;64.91;98989.59;2170009;81;21039;-80
2021/08/11 03:48:04;;;;;;;16.20;11.03;;;;;;;20.31;64.00;98989.41;2168553;81;21401;-77
2021/08/11 03:51:05;;;;;;;9.68;8.68;;;;;;;19.90;65.22;98993.03;2169508;81;21019;-80
2021/08/11 03:54:05;;;;;;;14.53;8.30;;;;;;;19.55;64.65;98996.48;2170486;82;20987;-79
2021/08/11 03:57:06;;;;;;;10.70;8.00;;;;;;;18.65;65.99;99012.77;2169882;82;21019;-78
2021/08/11 04:00:06;;;;;;;14.63;9.30;;;;;;;17.93;68.47;99017.44;2169563;81;20985;-79
2021/08/11 04:03:07;;;;;;;14.28;10.40;;;;;;;17.57;70.42;99019.67;2169660;82;20976;-80
2021/08/11 04:06:07;;;;;;;14.18;9.93;;;;;;;17.57;70.42;99019.67;2171555;82;21325;-79
2021/08/11 04:09:11;;;;;;;17.27;10.95;;;;;;;17.21;72.10;99017.03;2172462;82;20977;-80
2021/08/11 04:12:11;;;;;;;13.90;9.98;;;;;;;17.02;73.62;99024.28;2171232;81;20933;-80
2021/08/11 04:15:15;;;;;;;12.30;9.75;;;;;;;17.34;74.02;99026.98;2170877;81;21340;-79
2021/08/11 04:18:15;;;;;;;13.55;10.10;;;;;;;17.40;74.88;99024.30;2171585;81;21028;-81
2021/08/11 04:21:16;;;;;;;21.55;16.40;;;;;;;17.83;74.49;99026.81;2172712;81;20941;-80
2021/08/11 04:24:16;;;;;;;18.50;16.70;;;;;;;18.34;74.10;99022.97;2171536;81;20929;-80
2021/08/11 04:27:17;;;;;;;18.32;13.75;;;;;;;18.71;73.13;99032.49;2172463;82;20980;-81
2021/08/11 04:30:18;;;;;;;14.43;13.00;;;;;;;18.98;72.32;99014.36;2169283;81;20960;-81
2021/08/11 04:33:18;;;;;;;12.85;11.57;;;;;;;19.22;71.52;99014.36;2170479;81;21467;-81
2021/08/11 04:36:19;;;;;;;22.00;16.35;;;;;;;18.84;70.44;99002.73;2170203;81;20980;-81
2021/08/11 04:39:19;;;;;;;14.15;10.68;;;;;;;18.86;72.19;98982.41;2169065;81;21321;-81
2021/08/11 04:42:20;;;;;;;13.72;11.38;;;;;;;19.16;71.53;98963.77;2170300;81;21000;-81
2021/08/11 04:45:20;;;;;;;17.90;12.03;;;;;;;19.36;71.15;98981.87;2170251;81;21040;-80
2021/08/11 04:48:21;;;;;;;17.62;14.65;;;;;;;19.50;71.04;98990.83;2170079;81;21067;-80
2021/08/11 04:51:21;;;;;;;19.30;13.18;;;;;;;19.29;69.62;98999.65;2169884;81;20921;-81
2021/08/11 04:54:22;;;;;;;14.13;11.68;;;;;;;19.15;71.74;99009.65;2169165;82;21286;-83
2021/08/11 04:57:22;;;;;;;10.75;9.68;;;;;;;19.36;71.22;99017.59;2170741;81;20985;-81
2021/08/11 05:00:23;;;;;;;13.80;10.25;;;;;;;19.24;71.47;99016.08;2170957;81;20972;-81
2021/08/11 05:03:23;;;;;;;11.28;9.50;;;;;;;19.47;71.46;99019.56;2167692;82;20988;-80
2021/08/11 05:06:24;;;;;;;22.50;9.70;;;;;;;19.76;71.42;99016.77;2168919;81;21012;-80
2021/08/11 05:09:24;;;;;;;14.00;10.20;;;;;;;19.78;71.27;99017.16;2168978;81;20913;-80
2021/08/11 05:12:25;;;;;;;13.72;9.78;;;;;;;19.73;70.92;99023.88;2167970;81;20989;-80
2021/08/11 05:15:25;;;;;;;15.13;10.10;;;;;;;19.76;70.00;99023.39;2170357;82;20972;-80
2021/08/11 05:18:26;;;;;;;12.95;11.40;;;;;;;19.66;71.10;99023.59;2171858;81;21646;-85
2021/08/11 05:21:26;;;;;;;17.67;10.20;;;;;;;19.83;71.01;99023.22;2171949;81;21363;-81
2021/08/11 05:24:27;;;;;;;11.88;9.48;;;;;;;19.19;69.24;99027.66;2170765;81;20973;-81
2021/08/11 05:27:28;;;;;;;12.93;9.40;;;;;;;18.86;71.27;99029.14;2169300;82;20945;-80
2021/08/11 05:30:29;;;;;;;11.10;9.28;;;;;;;18.84;71.44;99034.46;2169305;82;21040;-80
2021/08/11 05:33:29;;;;;;;11.95;9.63;;;;;;;18.82;71.86;99040.23;2168666;81;21022;-80
2021/08/11 05:36:30;;;;;;;13.00;10.37;;;;;;;18.57;71.57;99037.12;2169394;81;21669;-80
2021/08/11 05:39:31;;;;;;;21.93;9.98;;;;;;;18.39;71.71;99038.30;2170285;81;20957;-80
2021/08/11 05:42:31;;;;;;;15.08;12.47;;;;;;;18.46;72.53;99043.04;2169663;82;20929;-79
2021/08/11 05:45:31;;;;;;;14.03;11.12;;;;;;;18.61;72.70;99044.55;2169896;81;20976;-81
2021/08/11 05:48:32;;;;;;;12.25;11.00;;;;;;;18.48;72.61;99053.59;2170596;81;21395;-80
2021/08/11 05:51:36;;;;;;;24.52;11.80;;;;;;;18.78;73.32;99059.25;2168748;82;21400;-82
2021/08/11 05:54:35;;;;;;;17.00;10.03;;;;;;;19.20;73.08;99059.83;2170512;81;20968;-79
2021/08/11 05:57:35;;;;;;;10.88;9.78;;;;;;;19.04;71.83;99051.28;2170887;81;20977;-80
2021/08/11 06:00:36;;;;;;;12.85;10.00;;;;;;;18.88;72.14;99052.02;2170584;81;20956;-81
2021/08/11 06:03:36;;;;;;;24.60;10.65;;;;;;;19.16;72.91;99052.41;2168749;81;20956;-80
2021/08/11 06:06:37;;;;;;;17.20;10.18;;;;;;;19.64;73.88;99047.91;2169502;81;21008;-80
2021/08/11 06:09:37;;;;;;;10.75;8.38;;;;;;;20.29;71.70;99045.57;2170186;81;21376;-82
2021/08/11 06:12:38;;;;;;;11.63;8.08;;;;;;;20.59;70.92;99039.13;2170748;81;20952;-81
2021/08/11 06:15:39;;;;;;;8.45;7.45;;;;;;;20.65;68.24;99053.09;2168552;82;20956;-81
2021/08/11 06:18:45;;;;;;;8.58;7.58;;;;;;;20.21;68.40;99055.94;2172301;81;21016;-82
2021/08/11 06:21:46;;;;;;;12.73;8.25;;;;;;;20.16;69.03;99047.22;2170745;82;21026;-84
2021/08/11 06:24:46;;;;;;;7.37;6.50;;;;;;;20.12;69.30;99057.02;2169454;82;20972;-84
2021/08/11 06:27:47;;;;;;;11.12;6.85;;;;;;;19.90;69.01;99061.04;2170122;82;21387;-82
2021/08/11 06:30:48;;;;;;;10.58;7.37;;;;;;;19.96;69.04;99051.66;2172878;81;20992;-82
2021/08/11 06:33:48;;;;;;;8.70;7.30;;;;;;;19.97;69.10;99056.05;2171628;82;20921;-82
2021/08/11 06:36:49;;;;;;;9.60;7.25;;;;;;;19.91;69.25;99055.70;2170340;82;21004;-82
2021/08/11 06:39:49;;;;;;;9.70;5.90;;;;;;;20.02;69.69;99061.66;2171222;81;20992;-83
2021/08/11 06:42:50;;;;;;;6.60;5.75;;;;;;;20.18;69.15;99079.41;2170264;82;21008;-83
2021/08/11 06:45:50;;;;;;;11.93;6.10;;;;;;;20.44;68.72;99060.72;2170320;82;21364;-80
2021/08/11 06:48:55;;;;;;;7.55;6.25;;;;;;;20.49;68.82;99056.17;2172399;81;20981;-80
2021/08/11 06:51:53;;;;;;;10.55;5.97;;;;;;;20.74;67.93;99051.98;2128194;83;20976;-82
2021/08/11 06:54:54;;;;;;;8.75;6.10;;;;;;;20.75;66.36;99053.73;2127879;84;21004;-82
2021/08/11 06:57:55;;;;;;;8.83;5.58;;;;;;;20.82;66.69;99053.15;2127967;84;21367;-80
2021/08/11 07:00:59;;;;;;;8.93;5.67;;;;;;;20.90;66.35;99050.71;2108667;84;20940;-81
2021/08/11 07:03:59;;;;;;;7.72;5.37;;;;;;;20.92;65.65;99055.52;2173922;81;21043;-81
2021/08/11 07:07:00;;;;;;;5.78;5.08;;;;;;;20.88;66.08;99052.53;2173465;82;21032;-81
2021/08/11 07:10:01;;;;;;;5.62;4.80;;;;;;;21.14;65.95;99052.28;2172724;81;20932;-81
2021/08/11 07:13:02;;;;;;;8.75;5.70;;;;;;;21.22;65.39;99045.88;2173572;81;21384;-81
2021/08/11 07:16:02;;;;;;;7.30;4.70;;;;;;;21.21;64.23;99057.38;2173462;81;20960;-80
2021/08/11 07:19:03;;;;;;;6.40;5.12;;;;;;;21.29;64.10;99059.86;2173311;81;21027;-80
2021/08/11 07:22:04;;;;;;;11.25;5.03;;;;;;;21.27;64.34;99059.90;2173062;82;20995;-81
2021/08/11 07:25:04;;;;;;;9.13;5.08;;;;;;;21.30;64.74;99054.50;2172457;81;20977;-83
2021/08/11 07:28:08;;;;;;;5.42;4.78;;;;;;;21.43;64.09;99056.35;2173235;82;20977;-82
2021/08/11 07:31:09;;;;;;;8.10;5.22;;;;;;;21.52;64.21;99056.09;2173087;81;20999;-82
2021/08/11 07:34:11;;;;;;;8.53;5.22;;;;;;;21.85;64.23;99055.57;2171976;81;21023;-82
2021/08/11 07:37:11;;;;;;;9.93;4.83;;;;;;;22.05;63.42;99055.45;2173470;82;21347;-81
2021/08/11 07:40:18;;;;;;;4.80;4.30;;;;;;;22.00;61.66;99063.53;2172657;82;20988;-82
2021/08/11 07:43:19;;;;;;;9.25;4.40;;;;;;;22.06;62.09;99059.39;2172646;82;20957;-83
2021/08/11 07:46:19;;;;;;;6.28;4.17;;;;;;;22.27;61.27;99056.52;2173179;82;20999;-81
2021/08/11 07:49:22;;;;;;;6.00;4.28;;;;;;;22.21;60.18;99066.88;2159520;82;20984;-82
2021/08/11 07:52:25;;;;;;;5.60;4.40;;;;;;;22.41;60.87;99064.05;2125851;84;21288;-81
2021/08/11 07:55:26;;;;;;;7.00;4.20;;;;;;;22.55;59.55;99068.02;2128058;84;20975;-82
2021/08/11 07:58:26;;;;;;;4.87;4.15;;;;;;;22.64;60.21;99072.17;2128606;84;20941;-81
2021/08/11 08:01:27;;;;;;;4.87;3.95;;;;;;;22.73;58.67;99069.20;2128365;83;20940;-81
2021/08/11 08:04:27;;;;;;;5.35;3.75;;;;;;;23.00;58.66;99062.55;2128473;84;21019;-80
2021/08/11 08:07:29;;;;;;;9.23;5.00;;;;;;;23.31;57.51;99063.66;2128491;83;21012;-82
2021/08/11 08:10:30;;;;;;;7.15;4.17;;;;;;;23.53;55.24;99064.64;2128321;84;21016;-83
2021/08/11 08:13:30;;;;;;;9.25;4.25;;;;;;;23.72;54.93;99067.52;2128991;83;20971;-83
2021/08/11 08:16:31;;;;;;;4.62;4.08;;;;;;;23.66;54.13;99065.09;2128540;84;20959;-82
2021/08/11 08:19:31;;;;;;;5.20;3.87;;;;;;;23.74;54.94;99069.66;2128708;83;21039;-84
2021/08/11 08:22:32;;;;;;;6.20;3.70;;;;;;;23.88;55.07;99075.34;2128376;84;21011;-82
2021/08/11 08:25:32;;;;;;;5.00;3.83;;;;;;;24.13;53.23;99070.78;2127872;83;21020;-82
2021/08/11 08:28:33;;;;;;;6.08;4.62;;;;;;;24.42;53.87;99078.15;2127445;84;21048;-80
2021/08/11 08:31:34;;;;;;;6.42;3.85;;;;;;;24.62;50.76;99075.53;2128284;84;20956;-81
2021/08/11 08:34:37;;;;;;;4.72;3.80;;;;;;;24.55;52.16;99068.71;2128452;84;21039;-82
2021/08/11 08:37:38;;;;;;;8.50;3.83;;;;;;;24.68;51.80;99079.75;2127941;84;20967;-81
2021/08/11 08:40:39;;;;;;;6.17;3.80;;;;;;;24.73;50.06;99082.62;2128371;84;21026;-82
2021/08/11 08:43:39;;;;;;;9.63;4.10;;;;;;;24.66;49.71;99085.15;2129273;83;20936;-82
2021/08/11 08:46:42;;;;;;;4.95;3.75;;;;;;;24.20;51.05;99087.41;2128553;84;21033;-82
2021/08/11 08:49:43;;;;;;;7.55;4.42;;;;;;;24.03;52.13;99082.74;2127648;83;21075;-81
2021/08/11 08:52:44;;;;;;;6.03;3.98;;;;;;;24.47;51.78;99088.64;2127573;84;21032;-80
2021/08/11 08:55:44;;;;;;;5.37;3.70;;;;;;;23.97;53.30;99078.98;2126889;83;21324;-83
2021/08/11 08:58:45;;;;;;;6.15;4.03;;;;;;;23.77;50.90;99077.54;2127685;84;21015;-83
2021/08/11 09:01:45;;;;;;;5.33;4.47;;;;;;;23.64;52.49;99076.27;2128332;83;20972;-82
2021/08/11 09:04:46;;;;;;;9.35;3.90;;;;;;;23.64;51.32;99070.47;2127773;83;21007;-81
2021/08/11 09:07:47;;;;;;;6.10;4.10;;;;;;;23.87;53.30;99069.59;2126695;84;20959;-81
2021/08/11 09:10:47;;;;;;;6.35;4.12;;;;;;;24.14;49.96;99056.98;2127168;84;20974;-81
2021/08/11 09:13:48;;;;;;;4.35;4.05;;;;;;;24.33;49.95;99060.72;2128165;83;21382;-84
2021/08/11 09:16:48;;;;;;;5.22;4.45;;;;;;;24.55;49.49;99056.70;2127373;84;20979;-82
2021/08/11 09:19:49;;;;;;;5.37;4.37;;;;;;;24.60;48.00;99048.50;2127622;83;20996;-81
2021/08/11 09:22:53;;;;;;;7.05;4.20;;;;;;;24.88;47.70;99052.20;2127145;84;21376;-83
2021/08/11 09:25:53;;;;;;;6.28;4.42;;;;;;;24.96;47.13;99055.41;2127884;84;21050;-82
2021/08/11 09:28:54;;;;;;;4.60;4.10;;;;;;;25.06;44.94;99060.79;2128100;83;20980;-83
2021/08/11 09:31:54;;;;;;;8.45;4.75;;;;;;;25.50;47.06;99055.30;2127593;84;21360;-82
2021/08/11 09:34:56;;;;;;;5.15;3.98;;;;;;;25.54;45.18;99050.22;2127770;83;20940;-83
2021/08/11 09:37:57;;;;;;;6.62;4.42;;;;;;;25.45;46.62;99061.33;2127359;83;20976;-83
2021/08/11 09:40:57;;;;;;;5.60;4.30;;;;;;;25.56;47.47;99061.23;2126652;84;20932;-81
2021/08/11 09:43:57;;;;;;;5.55;4.37;;;;;;;25.52;45.86;99065.45;2126867;84;20937;-83
2021/08/11 09:46:58;;;;;;;7.15;4.70;;;;;;;25.35;44.62;99063.08;2127296;84;21007;-82
2021/08/11 09:49:59;;;;;;;5.67;4.55;;;;;;;25.16;44.60;99068.84;2127532;82;21095;-81
2021/08/11 09:52:59;;;;;;;5.95;4.75;;;;;;;25.28;44.29;99070.97;2127546;84;20984;-82
2021/08/11 09:56:02;;;;;;;6.55;4.22;;;;;;;25.78;43.63;99077.66;2128034;84;20995;-83
2021/08/11 09:59:03;;;;;;;6.53;4.42;;;;;;;25.55;43.72;99073.34;2127541;84;20951;-82
2021/08/11 10:02:03;;;;;;;6.30;4.37;;;;;;;25.88;43.69;99072.28;2127695;84;21390;-82
2021/08/11 10:05:04;;;;;;;4.53;4.08;;;;;;;25.55;42.31;99072.87;2128055;84;21035;-82
2021/08/11 10:08:04;;;;;;;6.12;4.28;;;;;;;24.98;43.86;99074.48;2127815;84;21031;-80
2021/08/11 10:11:05;;;;;;;5.17;4.33;;;;;;;25.26;44.98;99079.98;2126376;84;20924;-81
2021/08/11 10:14:05;;;;;;;6.65;3.98;;;;;;;25.41;43.95;99083.31;2126503;84;20947;-82
2021/08/11 10:17:06;;;;;;;5.17;3.98;;;;;;;25.45;44.31;99069.34;2127083;84;20951;-81
2021/08/11 10:20:07;;;;;;;5.03;3.95;;;;;;;25.27;43.50;99071.90;2127021;84;21414;-81
2021/08/11 10:23:07;;;;;;;4.40;4.00;;;;;;;24.78;45.32;99075.76;2127142;84;20988;-81
2021/08/11 10:26:08;;;;;;;4.95;4.55;;;;;;;24.71;47.03;99069.81;2127759;84;21011;-81
2021/08/11 10:29:08;;;;;;;4.70;4.30;;;;;;;24.73;46.22;99075.08;2128146;84;20976;-80
2021/08/11 10:32:09;;;;;;;6.55;4.55;;;;;;;25.12;46.20;99077.88;2128316;84;20984;-81
2021/08/11 10:35:09;;;;;;;4.05;3.67;;;;;;;25.14;46.16;99072.47;2128020;84;20941;-80
2021/08/11 10:38:10;;;;;;;5.30;4.25;;;;;;;25.41;45.39;99067.28;2127637;84;20988;-80
2021/08/11 10:41:11;;;;;;;4.92;4.20;;;;;;;25.56;44.51;99071.06;2128125;84;20964;-82
2021/08/11 10:44:11;;;;;;;5.72;4.12;;;;;;;25.50;45.10;99074.88;2127357;84;20980;-78
2021/08/11 10:47:12;;;;;;;7.12;4.20;;;;;;;24.98;44.88;99077.61;2126238;84;21019;-78
2021/08/11 10:50:13;;;;;;;4.30;3.90;;;;;;;24.71;45.77;99068.47;2126425;83;21016;-81
2021/08/11 10:53:13;;;;;;;7.42;4.00;;;;;;;24.80;45.28;99070.35;2127965;83;20959;-81
2021/08/11 10:56:14;;;;;;;4.80;3.87;;;;;;;24.84;45.40;99075.97;2127569;83;21702;-82
2021/08/11 10:59:14;;;;;;;4.62;4.10;;;;;;;24.70;45.76;99074.75;2127851;84;21359;-84
2021/08/11 11:02:15;;;;;;;5.03;4.15;;;;;;;24.77;46.26;99068.22;2128169;83;21012;-83
2021/08/11 11:05:15;;;;;;;6.30;4.42;;;;;;;24.59;46.44;99073.45;2128305;84;20988;-81
2021/08/11 11:08:16;;;;;;;6.92;4.22;;;;;;;24.63;46.85;99074.59;2127784;83;21011;-81
2021/08/11 11:11:16;;;;;;;8.60;4.83;;;;;;;24.50;47.04;99074.70;2128162;84;21456;-81
2021/08/11 11:14:17;;;;;;;5.17;4.37;;;;;;;24.33;47.84;99070.52;2127428;84;21011;-81
2021/08/11 11:17:18;;;;;;;5.25;4.50;;;;;;;24.30;48.22;99068.84;2127875;84;20979;-82
2021/08/11 11:20:20;;;;;;;5.47;4.40;;;;;;;24.74;48.30;99069.68;2127466;83;21447;-83
2021/08/11 11:23:21;;;;;;;12.40;5.00;;;;;;;25.27;47.80;99075.04;2172010;81;20965;-82
2021/08/11 11:26:22;;;;;;;4.47;4.08;;;;;;;25.18;46.77;99072.31;2170598;81;21027;-82
2021/08/11 11:29:22;;;;;;;6.03;4.97;;;;;;;25.20;46.46;99072.23;2171115;82;21005;-82
2021/08/11 11:32:23;;;;;;;5.17;3.90;;;;;;;25.27;47.63;99076.38;2169182;81;21346;-81
2021/08/11 11:35:24;;;;;;;5.90;3.70;;;;;;;25.73;43.95;99072.53;2168453;82;20921;-83
2021/08/11 11:38:24;;;;;;;6.05;3.83;;;;;;;25.99;44.11;99072.18;2169016;81;21396;-80
2021/08/11 11:41:25;;;;;;;4.78;3.92;;;;;;;25.51;45.16;99071.73;2171187;81;20952;-82
2021/08/11 11:44:25;;;;;;;4.92;4.25;;;;;;;24.57;46.42;99078.86;2169682;82;20952;-82
2021/08/11 11:47:26;;;;;;;4.78;4.28;;;;;;;23.96;47.61;99077.24;2170627;81;20957;-83
2021/08/11 11:50:28;;;;;;;5.58;4.42;;;;;;;23.67;49.30;99072.16;2170185;81;21012;-83
2021/08/11 11:53:29;;;;;;;4.72;4.33;;;;;;;23.88;48.59;99070.00;2169411;82;20949;-82
2021/08/11 11:56:32;;;;;;;5.08;4.53;;;;;;;24.43;48.45;99061.20;2171061;81;21404;-82
2021/08/11 11:59:33;;;;;;;4.28;3.58;;;;;;;25.26;46.72;99060.81;2128938;84;21007;-82
2021/08/11 12:02:33;;;;;;;4.05;3.42;;;;;;;25.94;44.11;99055.48;2127596;84;20983;-82
2021/08/11 12:05:34;;;;;;;9.70;3.70;;;;;;;26.03;40.46;99063.57;2126844;84;21035;-81
2021/08/11 12:08:34;;;;;;;4.17;3.70;;;;;;;25.87;41.30;99056.70;2127661;84;21009;-83
2021/08/11 12:11:35;;;;;;;4.65;4.25;;;;;;;25.89;41.39;99060.65;2126921;84;20936;-82
2021/08/11 12:14:36;;;;;;;4.72;3.95;;;;;;;25.97;42.30;99058.02;2126758;84;20916;-82
2021/08/11 12:17:36;;;;;;;5.47;3.40;;;;;;;26.07;42.37;99060.28;2127255;84;20944;-84
2021/08/11 12:20:37;;;;;;;7.90;3.72;;;;;;;25.65;43.42;99067.97;2128031;84;21015;-82
2021/08/11 12:23:38;;;;;;;3.92;3.52;;;;;;;24.97;43.42;99065.16;2127820;84;21026;-83
2021/08/11 12:26:39;;;;;;;4.08;3.55;;;;;;;24.95;44.49;99061.69;2127174;84;21019;-83
2021/08/11 12:29:40;;;;;;;4.72;3.55;;;;;;;25.36;42.86;99055.92;2127917;84;21024;-82
2021/08/11 12:32:40;;;;;;;4.67;3.62;;;;;;;25.59;43.51;99059.77;2127069;84;21011;-82
2021/08/11 12:35:43;;;;;;;3.70;3.40;;;;;;;26.07;42.95;99046.91;2107551;83;20991;-81
2021/08/11 12:38:43;;;;;;;6.20;3.15;;;;;;;25.92;41.91;99053.34;2130727;83;20962;-82
2021/08/11 12:41:44;;;;;;;3.90;3.50;;;;;;;25.42;42.71;99055.66;2127612;84;21014;-81
2021/08/11 12:44:47;;;;;;;5.95;3.70;;;;;;;24.86;44.18;99058.08;2127038;84;20995;-82
2021/08/11 12:47:48;;;;;;;;;;;;;;;24.47;45.34;99062.82;2130172;84;20932;-83
2021/08/11 12:50:48;;;;;;;5.28;3.70;;;;;;;24.22;45.52;99058.02;2113368;84;20130;-84
2021/08/11 12:53:49;;;;;;;4.92;3.52;;;;;;;24.11;46.18;99047.77;2096938;84;20988;-82
2021/08/11 12:56:49;;;;;;;4.12;3.72;;;;;;;24.15;46.48;99050.25;2114697;84;20957;-83
2021/08/11 12:59:50;;;;;;;4.30;3.90;;;;;;;24.24;46.08;99054.35;2173496;81;20908;-81
2021/08/11 13:02:50;;;;;;;7.28;4.30;;;;;;;24.73;45.32;99051.92;2171046;82;20913;-82
2021/08/11 13:05:51;;;;;;;5.05;4.65;;;;;;;25.33;44.38;99050.25;2170633;82;21400;-83
2021/08/11 13:08:51;;;;;;;3.75;3.45;;;;;;;25.67;44.08;99056.77;2169410;81;20956;-81
2021/08/11 13:11:52;;;;;;;3.80;3.50;;;;;;;25.35;43.26;99058.20;2170663;81;20944;-81
2021/08/11 13:14:52;;;;;;;6.78;3.47;;;;;;;24.80;44.49;99057.00;2168817;81;20969;-82
2021/08/11 13:17:53;;;;;;;3.47;3.17;;;;;;;24.39;44.58;99060.93;2171868;82;20953;-82
2021/08/11 13:20:53;;;;;;;3.67;3.37;;;;;;;24.09;45.32;99058.97;2171746;81;21368;-82
2021/08/11 13:23:54;;;;;;;4.45;3.45;;;;;;;23.90;46.15;99054.81;2171508;81;20976;-81
2021/08/11 13:26:56;;;;;;;3.87;3.45;;;;;;;23.87;46.04;99058.94;2171385;81;20988;-82
2021/08/11 13:29:57;;;;;;;4.05;3.27;;;;;;;24.10;45.86;99052.23;2127311;84;21023;-82
2021/08/11 13:32:58;;;;;;;5.83;3.80;;;;;;;24.58;46.27;99045.03;2127603;84;20960;-82
2021/08/11 13:35:58;;;;;;;3.52;3.20;;;;;;;25.40;41.94;99042.83;2127650;84;21336;-82
2021/08/11 13:38:59;;;;;;;5.17;3.72;;;;;;;25.75;40.53;99054.61;2127405;84;20995;-81
2021/08/11 13:41:59;;;;;;;3.70;3.40;;;;;;;25.96;39.86;99050.92;2128132;84;21015;-81
2021/08/11 13:45:00;;;;;;;9.63;3.95;;;;;;;25.86;40.77;99054.98;2127468;84;21003;-82
2021/08/11 13:48:00;;;;;;;3.72;3.33;;;;;;;25.61;39.96;99063.23;2127359;83;21344;-79
2021/08/11 13:51:01;;;;;;;8.68;3.55;;;;;;;25.26;41.47;99055.47;2127315;84;21388;-83
2021/08/11 13:54:01;;;;;;;3.27;3.05;;;;;;;24.97;42.24;99062.49;2127914;84;21008;-84
2021/08/11 13:57:02;;;;;;;3.60;3.20;;;;;;;24.55;43.50;99060.70;2127945;84;20976;-84
2021/08/11 14:00:03;;;;;;;3.40;3.10;;;;;;;24.72;42.73;99057.33;2127959;84;20979;-82
2021/08/11 14:03:03;;;;;;;4.35;3.17;;;;;;;24.85;42.87;99051.88;2128178;84;21015;-83
2021/08/11 14:06:04;;;;;;;3.77;3.33;;;;;;;24.91;40.92;99060.95;2128131;84;21016;-81